CheckWX is a tool to help pilots better visualize weather data.  It is not intended as a substitute for an official pre-flight weather briefing.

00:39:08 UTC

LFOE TAF
Évreux-Fauville (BA 105) Air Base Airport
Évreux/Fauville, France
TAF LFOE 262000Z 2621/2721 34005KT CAVOK BECMG 2622/2701 3000 BR PROB30 TEMPO 2701/2706 0500 BCFG BECMG 2706/2708 9999 NSW BKN030 TEMPO 2715/2718 01010G20KT

Mar-26@
21:00 UTC

Mar-26 @ 21:00 UTC

Mar-26@
22:00 UTC

Mar-26 @ 22:00 UTC

TAF LFOE 262000Z 2621/2721 34005KT CAVOK

Expired

Wind
  • 340° at 5 KTS
Conditions
No significant weather
Cloud Levels
  • No significant clouds

Mar-26@
22:00 UTC

Mar-26 @ 22:00 UTC

Mar-27@
06:00 UTC

Mar-27 @ 06:00 UTC

BECMG 2622/2701 3000 BR

Becoming

Becoming Conditions expected by Wed, Mar 27, 2019 @ 01:00 UTC

Wind
  • 340° at 5 KTS
Conditions
Mist
Cloud Levels
  • No significant clouds

Mar-27@
01:00 UTC

Mar-27 @ 01:00 UTC

Mar-27@
06:00 UTC

Mar-27 @ 06:00 UTC

PROB30 TEMPO 2701/2706 0500 BCFG

Temporary - 30% Likelihood

Temporary - 30% Likelihood during this time.

Conditions
Patches of Fog

Mar-27@
06:00 UTC

Mar-27 @ 06:00 UTC

Mar-27@
21:00 UTC

Mar-27 @ 21:00 UTC

BECMG 2706/2708 9999 NSW BKN030

Becoming

Becoming Conditions expected by Wed, Mar 27, 2019 @ 08:00 UTC

Wind
  • 340° at 5 KTS
Conditions
No significant weather
Cloud Levels
  • Broken at 3,000' AGL

Mar-27@
15:00 UTC

Mar-27 @ 15:00 UTC

Mar-27@
18:00 UTC

Mar-27 @ 18:00 UTC

TEMPO 2715/2718 01010G20KT

Temporary

Temporary Changes expected for less than half the time period

Wind
  • 010° at 10 KTS
  • {Gusting to 20 KTS